sensor_id;sensor_type;location;lat;lon;timestamp;pressure;altitude;pressure_sealevel;temperature;humidity
4012;BME280;2020;48.682;9.024;2022-12-11T00:01:20;95730.81;;;-4.06;90.06
4012;BME280;2020;48.682;9.024;2022-12-11T00:03:47;95735.25;;;-4.09;91.04
4012;BME280;2020;48.682;9.024;2022-12-11T00:06:14;95735.25;;;-4.09;90.87
4012;BME280;2020;48.682;9.024;2022-12-11T00:08:40;95731.06;;;-4.11;90.77
4012;BME280;2020;48.682;9.024;2022-12-11T00:11:11;95732.31;;;-4.18;91.50
4012;BME280;2020;48.682;9.024;2022-12-11T00:13:36;95735.91;;;-4.22;91.40
4012;BME280;2020;48.682;9.024;2022-12-11T00:16:02;95734.59;;;-4.29;91.58
4012;BME280;2020;48.682;9.024;2022-12-11T00:18:27;95729.19;;;-4.23;92.32
4012;BME280;2020;48.682;9.024;2022-12-11T00:20:52;95729.03;;;-4.20;92.63
4012;BME280;2020;48.682;9.024;2022-12-11T00:23:18;95728.88;;;-4.17;92.60
4012;BME280;2020;48.682;9.024;2022-12-11T00:25:44;95724.75;;;-4.19;92.40
4012;BME280;2020;48.682;9.024;2022-12-11T00:28:11;95724.28;;;-4.26;92.11
4012;BME280;2020;48.682;9.024;2022-12-11T00:30:41;95716.41;;;-4.37;91.22
4012;BME280;2020;48.682;9.024;2022-12-11T00:33:07;95725.56;;;-4.35;91.54
4012;BME280;2020;48.682;9.024;2022-12-11T00:35:32;95715.91;;;-4.44;91.44
4012;BME280;2020;48.682;9.024;2022-12-11T00:37:58;95715.56;;;-4.38;91.77
4012;BME280;2020;48.682;9.024;2022-12-11T00:40:23;95710.44;;;-4.36;91.57
4012;BME280;2020;48.682;9.024;2022-12-11T00:42:48;95716.06;;;-4.47;90.72
4012;BME280;2020;48.682;9.024;2022-12-11T00:45:13;95719.19;;;-4.58;90.25
4012;BME280;2020;48.682;9.024;2022-12-11T00:47:39;95714.28;;;-4.61;89.99
4012;BME280;2020;48.682;9.024;2022-12-11T00:50:04;95721.16;;;-4.63;90.49
4012;BME280;2020;48.682;9.024;2022-12-11T00:52:30;95724.56;;;-4.64;91.44
4012;BME280;2020;48.682;9.024;2022-12-11T00:54:55;95733.44;;;-4.56;92.07
4012;BME280;2020;48.682;9.024;2022-12-11T00:57:20;95736.66;;;-4.52;92.53
4012;BME280;2020;48.682;9.024;2022-12-11T00:59:46;95740.66;;;-4.48;92.01
4012;BME280;2020;48.682;9.024;2022-12-11T01:02:11;95735.41;;;-4.45;93.04
4012;BME280;2020;48.682;9.024;2022-12-11T01:04:36;95740.66;;;-4.48;92.78
4012;BME280;2020;48.682;9.024;2022-12-11T01:07:02;95744.09;;;-4.49;93.46
4012;BME280;2020;48.682;9.024;2022-12-11T01:09:27;95743.22;;;-4.48;93.67
4012;BME280;2020;48.682;9.024;2022-12-11T01:12:10;95752.47;;;-4.47;93.31
4012;BME280;2020;48.682;9.024;2022-12-11T01:14:36;95751.63;;;-4.47;92.71
4012;BME280;2020;48.682;9.024;2022-12-11T01:17:01;95760.81;;;-4.45;92.73
4012;BME280;2020;48.682;9.024;2022-12-11T01:19:27;95764.91;;;-4.42;93.59
4012;BME280;2020;48.682;9.024;2022-12-11T01:21:52;95769.03;;;-4.39;93.04
4012;BME280;2020;48.682;9.024;2022-12-11T01:24:18;95768.88;;;-4.36;93.96
4012;BME280;2020;48.682;9.024;2022-12-11T01:26:43;95772.94;;;-4.34;93.24
4012;BME280;2020;48.682;9.024;2022-12-11T01:29:08;95770.66;;;-4.38;93.61
4012;BME280;2020;48.682;9.024;2022-12-11T01:31:34;95775.91;;;-4.42;93.49
4012;BME280;2020;48.682;9.024;2022-12-11T01:33:59;95780.84;;;-4.38;93.92
4012;BME280;2020;48.682;9.024;2022-12-11T01:36:24;95782.31;;;-4.34;93.20
4012;BME280;2020;48.682;9.024;2022-12-11T01:38:50;95780.66;;;-4.35;93.01
4012;BME280;2020;48.682;9.024;2022-12-11T01:41:16;95771.78;;;-4.44;93.24
4012;BME280;2020;48.682;9.024;2022-12-11T01:46:45;95765.00;;;-4.44;93.42
4012;BME280;2020;48.682;9.024;2022-12-11T01:49:12;95778.13;;;-4.35;95.16
4012;BME280;2020;48.682;9.024;2022-12-11T01:51:46;95778.34;;;-4.40;94.25
4012;BME280;2020;48.682;9.024;2022-12-11T01:54:14;95788.13;;;-4.32;95.03
4012;BME280;2020;48.682;9.024;2022-12-11T01:56:42;95792.56;;;-4.20;96.26
4012;BME280;2020;48.682;9.024;2022-12-11T01:59:09;95790.03;;;-4.20;95.36
4012;BME280;2020;48.682;9.024;2022-12-11T02:01:48;95788.38;;;-4.21;94.34
4012;BME280;2020;48.682;9.024;2022-12-11T02:04:16;95788.22;;;-4.18;94.93
4012;BME280;2020;48.682;9.024;2022-12-11T02:06:45;95782.66;;;-4.08;96.05
4012;BME280;2020;48.682;9.024;2022-12-11T02:09:14;95779.03;;;-4.04;95.40
4012;BME280;2020;48.682;9.024;2022-12-11T02:11:51;95783.63;;;-3.95;95.96
4012;BME280;2020;48.682;9.024;2022-12-11T02:14:41;95788.38;;;-3.89;95.81
4012;BME280;2020;48.682;9.024;2022-12-11T02:17:31;95783.28;;;-3.89;95.56
4012;BME280;2020;48.682;9.024;2022-12-11T02:25:24;95783.63;;;-3.95;94.85
4012;BME280;2020;48.682;9.024;2022-12-11T02:30:23;95777.88;;;-3.99;95.30
4012;BME280;2020;48.682;9.024;2022-12-11T02:32:57;95773.56;;;-3.97;95.62
4012;BME280;2020;48.682;9.024;2022-12-11T02:35:26;95776.56;;;-3.90;95.50
4012;BME280;2020;48.682;9.024;2022-12-11T02:37:59;95778.38;;;-3.92;95.33
4012;BME280;2020;48.682;9.024;2022-12-11T02:40:29;95782.97;;;-3.83;96.13
4012;BME280;2020;48.682;9.024;2022-12-11T02:42:57;95782.97;;;-3.83;96.27
4012;BME280;2020;48.682;9.024;2022-12-11T02:45:25;95782.78;;;-3.79;96.04
4012;BME280;2020;48.682;9.024;2022-12-11T02:47:51;95777.53;;;-3.76;96.07
4012;BME280;2020;48.682;9.024;2022-12-11T02:50:19;95772.44;;;-3.76;96.19
4012;BME280;2020;48.682;9.024;2022-12-11T02:52:47;95772.28;;;-3.73;95.59
4012;BME280;2020;48.682;9.024;2022-12-11T02:55:14;95775.72;;;-3.74;95.86
4012;BME280;2020;48.682;9.024;2022-12-11T02:57:51;95768.28;;;-3.77;95.32
4012;BME280;2020;48.682;9.024;2022-12-11T03:00:17;95777.38;;;-3.73;94.82
4012;BME280;2020;48.682;9.024;2022-12-11T03:02:43;95771.72;;;-3.78;95.14
4012;BME280;2020;48.682;9.024;2022-12-11T03:05:11;95769.16;;;-3.78;95.73
4012;BME280;2020;48.682;9.024;2022-12-11T03:07:39;95775.91;;;-3.77;95.61
4012;BME280;2020;48.682;9.024;2022-12-11T03:10:07;95768.38;;;-3.79;95.14
4012;BME280;2020;48.682;9.024;2022-12-11T03:12:36;95769.84;;;-3.75;95.02
4012;BME280;2020;48.682;9.024;2022-12-11T03:15:05;95764.41;;;-3.85;94.55
4012;BME280;2020;48.682;9.024;2022-12-11T03:17:46;95771.31;;;-3.87;94.87
4012;BME280;2020;48.682;9.024;2022-12-11T03:26:05;95776.91;;;-3.96;95.14
4012;BME280;2020;48.682;9.024;2022-12-11T03:28:58;95771.66;;;-3.93;95.17
4012;BME280;2020;48.682;9.024;2022-12-11T03:31:44;95780.34;;;-3.97;95.34
4012;BME280;2020;48.682;9.024;2022-12-11T03:34:22;95771.16;;;-4.00;94.49
4012;BME280;2020;48.682;9.024;2022-12-11T03:36:50;95770.19;;;-3.97;94.37
4012;BME280;2020;48.682;9.024;2022-12-11T03:39:20;95771.81;;;-3.96;94.40
4012;BME280;2020;48.682;9.024;2022-12-11T03:41:49;95773.78;;;-4.01;93.97
4012;BME280;2020;48.682;9.024;2022-12-11T03:44:17;95776.91;;;-3.96;94.41
4012;BME280;2020;48.682;9.024;2022-12-11T03:46:45;95783.47;;;-3.92;93.85
4012;BME280;2020;48.682;9.024;2022-12-11T03:49:17;95781.03;;;-3.93;94.27
4012;BME280;2020;48.682;9.024;2022-12-11T03:51:44;95785.03;;;-3.89;94.83
4012;BME280;2020;48.682;9.024;2022-12-11T03:54:11;95779.69;;;-3.85;94.28
4012;BME280;2020;48.682;9.024;2022-12-11T03:56:37;95773.13;;;-3.89;94.51
4012;BME280;2020;48.682;9.024;2022-12-11T03:59:04;95768.19;;;-3.92;93.98
4012;BME280;2020;48.682;9.024;2022-12-11T04:01:29;95767.88;;;-3.86;94.51
4012;BME280;2020;48.682;9.024;2022-12-11T04:03:55;95766.06;;;-3.84;94.86
4012;BME280;2020;48.682;9.024;2022-12-11T04:06:20;95772.78;;;-3.83;95.19
4012;BME280;2020;48.682;9.024;2022-12-11T04:08:45;95773.63;;;-3.82;94.76
4012;BME280;2020;48.682;9.024;2022-12-11T04:11:10;95764.19;;;-3.80;95.42
4012;BME280;2020;48.682;9.024;2022-12-11T04:13:54;95757.88;;;-3.89;94.61
4012;BME280;2020;48.682;9.024;2022-12-11T04:16:38;95757.69;;;-3.86;95.06
4012;BME280;2020;48.682;9.024;2022-12-11T04:19:03;95755.72;;;-3.80;95.37
4012;BME280;2020;48.682;9.024;2022-12-11T04:21:47;95759.91;;;-3.79;94.85
4012;BME280;2020;48.682;9.024;2022-12-11T04:24:31;95757.19;;;-3.76;95.16
4012;BME280;2020;48.682;9.024;2022-12-11T04:26:56;95753.75;;;-3.75;94.74
4012;BME280;2020;48.682;9.024;2022-12-11T04:29:22;95750.47;;;-3.77;93.42
4012;BME280;2020;48.682;9.024;2022-12-11T04:31:47;95746.56;;;-3.83;93.25
4012;BME280;2020;48.682;9.024;2022-12-11T04:34:12;95758.19;;;-3.79;93.12
4012;BME280;2020;48.682;9.024;2022-12-11T04:36:38;95757.03;;;-3.73;94.19
4012;BME280;2020;48.682;9.024;2022-12-11T04:39:04;95751.94;;;-3.73;93.84
4012;BME280;2020;48.682;9.024;2022-12-11T04:41:30;95755.72;;;-3.80;92.45
4012;BME280;2020;48.682;9.024;2022-12-11T04:43:55;95758.84;;;-3.75;93.41
4012;BME280;2020;48.682;9.024;2022-12-11T04:46:22;95750.47;;;-3.77;93.78
4012;BME280;2020;48.682;9.024;2022-12-11T04:48:49;95752.09;;;-3.76;93.55
4012;BME280;2020;48.682;9.024;2022-12-11T04:51:14;95747.59;;;-3.71;93.30
4012;BME280;2020;48.682;9.024;2022-12-11T04:53:40;95746.50;;;-3.67;93.71
4012;BME280;2020;48.682;9.024;2022-12-11T04:56:10;95743.31;;;-3.71;94.36
4012;BME280;2020;48.682;9.024;2022-12-11T04:58:37;95734.06;;;-3.72;93.78
4012;BME280;2020;48.682;9.024;2022-12-11T05:01:18;95732.50;;;-3.74;94.13
4012;BME280;2020;48.682;9.024;2022-12-11T05:03:44;95729.03;;;-3.73;92.54
4012;BME280;2020;48.682;9.024;2022-12-11T05:06:11;95731.69;;;-3.75;93.19
4012;BME280;2020;48.682;9.024;2022-12-11T05:08:38;95731.75;;;-3.76;93.07
4012;BME280;2020;48.682;9.024;2022-12-11T05:11:07;95733.22;;;-3.72;93.06
4012;BME280;2020;48.682;9.024;2022-12-11T05:13:34;95736.66;;;-3.73;92.13
4012;BME280;2020;48.682;9.024;2022-12-11T05:16:02;95735.03;;;-3.74;91.42
4012;BME280;2020;48.682;9.024;2022-12-11T05:18:28;95738.81;;;-3.82;89.87
4012;BME280;2020;48.682;9.024;2022-12-11T05:20:55;95745.53;;;-3.80;90.81
4012;BME280;2020;48.682;9.024;2022-12-11T05:23:20;95741.03;;;-3.75;91.51
4012;BME280;2020;48.682;9.024;2022-12-11T05:25:56;95747.91;;;-3.77;90.41
4012;BME280;2020;48.682;9.024;2022-12-11T05:28:23;95736.28;;;-3.82;90.17
4012;BME280;2020;48.682;9.024;2022-12-11T05:30:57;95734.91;;;-3.87;90.42
4012;BME280;2020;48.682;9.024;2022-12-11T05:33:23;95729.31;;;-3.94;89.77
4012;BME280;2020;48.682;9.024;2022-12-11T05:35:48;95734.25;;;-3.91;90.72
4012;BME280;2020;48.682;9.024;2022-12-11T05:38:14;95721.13;;;-3.99;89.67
4012;BME280;2020;48.682;9.024;2022-12-11T05:40:39;95714.41;;;-4.00;90.34
4012;BME280;2020;48.682;9.024;2022-12-11T05:43:05;95703.50;;;-4.02;90.20
4012;BME280;2020;48.682;9.024;2022-12-11T05:45:30;95704.25;;;-4.00;90.47
4012;BME280;2020;48.682;9.024;2022-12-11T05:47:55;95702.78;;;-4.04;89.30
4012;BME280;2020;48.682;9.024;2022-12-11T05:50:20;95702.78;;;-4.04;89.42
4012;BME280;2020;48.682;9.024;2022-12-11T05:52:46;95693.41;;;-4.04;90.31
4012;BME280;2020;48.682;9.024;2022-12-11T05:55:12;95691.03;;;-4.07;90.21
4012;BME280;2020;48.682;9.024;2022-12-11T05:57:37;95684.91;;;-4.19;89.40
4012;BME280;2020;48.682;9.024;2022-12-11T06:00:04;95688.38;;;-4.20;89.96
4012;BME280;2020;48.682;9.024;2022-12-11T06:02:29;95689.09;;;-4.18;89.93
4012;BME280;2020;48.682;9.024;2022-12-11T06:04:55;95698.69;;;-4.23;89.55
4012;BME280;2020;48.682;9.024;2022-12-11T06:07:20;95701.25;;;-4.23;89.64
4012;BME280;2020;48.682;9.024;2022-12-11T06:09:45;95700.50;;;-4.25;89.70
4012;BME280;2020;48.682;9.024;2022-12-11T06:12:10;95694.13;;;-4.32;89.09
4012;BME280;2020;48.682;9.024;2022-12-11T06:14:36;95697.72;;;-4.36;89.24
4012;BME280;2020;48.682;9.024;2022-12-11T06:17:01;95692.97;;;-4.43;89.26
4012;BME280;2020;48.682;9.024;2022-12-11T06:19:26;95704.69;;;-4.56;89.21
4012;BME280;2020;48.682;9.024;2022-12-11T06:21:52;95698.72;;;-4.55;90.77
4012;BME280;2020;48.682;9.024;2022-12-11T06:24:17;95697.88;;;-4.56;89.91
4012;BME280;2020;48.682;9.024;2022-12-11T06:26:42;95695.09;;;-4.51;89.98
4012;BME280;2020;48.682;9.024;2022-12-11T06:29:07;95691.81;;;-4.53;89.59
4012;BME280;2020;48.682;9.024;2022-12-11T06:31:33;95695.09;;;-4.51;90.06
4012;BME280;2020;48.682;9.024;2022-12-11T06:33:58;95696.75;;;-4.50;90.07
4012;BME280;2020;48.682;9.024;2022-12-11T06:36:23;95691.81;;;-4.53;89.77
4012;BME280;2020;48.682;9.024;2022-12-11T06:38:49;95703.94;;;-4.58;89.80
4012;BME280;2020;48.682;9.024;2022-12-11T06:41:15;95702.94;;;-4.72;90.01
4012;BME280;2020;48.682;9.024;2022-12-11T06:43:41;95699.41;;;-4.69;89.98
4012;BME280;2020;48.682;9.024;2022-12-11T06:46:09;95695.94;;;-4.84;89.82
4012;BME280;2020;48.682;9.024;2022-12-11T06:48:35;95700.13;;;-4.83;90.12
4012;BME280;2020;48.682;9.024;2022-12-11T06:51:13;95699.53;;;-4.88;90.28
4012;BME280;2020;48.682;9.024;2022-12-11T06:53:39;95708.16;;;-4.91;90.14
4012;BME280;2020;48.682;9.024;2022-12-11T06:56:09;95712.25;;;-4.88;90.26
4012;BME280;2020;48.682;9.024;2022-12-11T06:58:36;95711.59;;;-4.92;89.73
4012;BME280;2020;48.682;9.024;2022-12-11T07:01:02;95714.03;;;-4.90;90.30
4012;BME280;2020;48.682;9.024;2022-12-11T07:03:27;95717.16;;;-4.85;90.20
4012;BME280;2020;48.682;9.024;2022-12-11T07:05:53;95718.97;;;-4.87;90.67
4012;BME280;2020;48.682;9.024;2022-12-11T07:08:18;95713.56;;;-4.81;90.69
4012;BME280;2020;48.682;9.024;2022-12-11T07:10:44;95717.91;;;-4.83;90.73
4012;BME280;2020;48.682;9.024;2022-12-11T07:13:09;95713.88;;;-4.87;90.68
4012;BME280;2020;48.682;9.024;2022-12-11T07:15:35;95710.69;;;-4.91;90.69
4012;BME280;2020;48.682;9.024;2022-12-11T07:18:00;95713.88;;;-4.87;90.11
4012;BME280;2020;48.682;9.024;2022-12-11T07:20:26;95714.03;;;-4.90;89.81
4012;BME280;2020;48.682;9.024;2022-12-11T07:22:52;95728.38;;;-4.89;90.04
4012;BME280;2020;48.682;9.024;2022-12-11T07:25:18;95725.50;;;-4.83;90.76
4012;BME280;2020;48.682;9.024;2022-12-11T07:27:43;95718.81;;;-4.84;90.53
4012;BME280;2020;48.682;9.024;2022-12-11T07:30:09;95728.97;;;-4.84;90.79
4012;BME280;2020;48.682;9.024;2022-12-11T07:32:35;95729.69;;;-4.82;90.47
4012;BME280;2020;48.682;9.024;2022-12-11T07:35:00;95738.63;;;-4.75;90.67
4012;BME280;2020;48.682;9.024;2022-12-11T07:37:25;95731.59;;;-4.70;90.15
4012;BME280;2020;48.682;9.024;2022-12-11T07:39:50;95733.41;;;-4.72;90.46
4012;BME280;2020;48.682;9.024;2022-12-11T07:42:16;95729.06;;;-4.70;90.45
4012;BME280;2020;48.682;9.024;2022-12-11T07:44:41;95734.59;;;-4.61;90.81
4012;BME280;2020;48.682;9.024;2022-12-11T07:47:06;95732.94;;;-4.62;90.81
4012;BME280;2020;48.682;9.024;2022-12-11T07:49:31;95736.38;;;-4.63;90.59
4012;BME280;2020;48.682;9.024;2022-12-11T07:51:57;95728.78;;;-4.63;91.11
4012;BME280;2020;48.682;9.024;2022-12-11T07:54:22;95724.28;;;-4.58;91.39
4012;BME280;2020;48.682;9.024;2022-12-11T07:56:47;95724.09;;;-4.55;91.65
4012;BME280;2020;48.682;9.024;2022-12-11T07:59:13;95723.78;;;-4.49;91.39
4012;BME280;2020;48.682;9.024;2022-12-11T08:01:40;95723.28;;;-4.39;91.24
4012;BME280;2020;48.682;9.024;2022-12-11T08:04:08;95717.56;;;-4.27;90.63
4012;BME280;2020;48.682;9.024;2022-12-11T08:06:36;95723.78;;;-4.17;90.62
4012;BME280;2020;48.682;9.024;2022-12-11T08:09:05;95722.19;;;-3.87;90.74
4012;BME280;2020;48.682;9.024;2022-12-11T08:11:30;95731.59;;;-3.43;88.51
4012;BME280;2020;48.682;9.024;2022-12-11T08:13:57;95727.38;;;-3.28;86.91
4012;BME280;2020;48.682;9.024;2022-12-11T08:16:23;95725.59;;;-2.97;86.18
4012;BME280;2020;48.682;9.024;2022-12-11T08:18:48;95726.84;;;-2.60;83.87
4012;BME280;2020;48.682;9.024;2022-12-11T08:21:16;95723.09;;;-2.40;83.08
4012;BME280;2020;48.682;9.024;2022-12-11T08:23:42;95730.44;;;-2.36;82.87
4012;BME280;2020;48.682;9.024;2022-12-11T08:26:12;95722.25;;;-2.41;81.67
4012;BME280;2020;48.682;9.024;2022-12-11T08:28:37;95724.63;;;-2.38;81.92
4012;BME280;2020;48.682;9.024;2022-12-11T08:31:04;95724.84;;;-2.55;82.12
4012;BME280;2020;48.682;9.024;2022-12-11T08:33:31;95727.75;;;-2.76;82.55
4012;BME280;2020;48.682;9.024;2022-12-11T08:35:56;95727.56;;;-3.02;82.93
4012;BME280;2020;48.682;9.024;2022-12-11T08:38:21;95720.72;;;-3.16;84.36
4012;BME280;2020;48.682;9.024;2022-12-11T08:40:47;95730.47;;;-3.22;86.04
4012;BME280;2020;48.682;9.024;2022-12-11T08:43:12;95727.19;;;-3.25;85.88
4012;BME280;2020;48.682;9.024;2022-12-11T08:45:37;95727.13;;;-3.39;85.86
4012;BME280;2020;48.682;9.024;2022-12-11T08:48:03;95722.78;;;-3.37;85.12
4012;BME280;2020;48.682;9.024;2022-12-11T08:50:29;95718.03;;;-3.43;86.12
4012;BME280;2020;48.682;9.024;2022-12-11T08:52:54;95719.50;;;-3.39;86.45
4012;BME280;2020;48.682;9.024;2022-12-11T08:55:19;95719.97;;;-3.32;87.22
4012;BME280;2020;48.682;9.024;2022-12-11T08:57:46;95719.00;;;-3.30;86.16
4012;BME280;2020;48.682;9.024;2022-12-11T09:00:12;95720.72;;;-3.30;86.77
4012;BME280;2020;48.682;9.024;2022-12-11T09:02:37;95714.22;;;-3.36;86.38
4012;BME280;2020;48.682;9.024;2022-12-11T09:05:04;95727.19;;;-3.25;87.35
4012;BME280;2020;48.682;9.024;2022-12-11T09:07:32;95726.28;;;-3.24;87.10
4012;BME280;2020;48.682;9.024;2022-12-11T09:09:57;95723.56;;;-3.20;87.08
4012;BME280;2020;48.682;9.024;2022-12-11T09:12:23;95722.13;;;-3.10;87.50
4012;BME280;2020;48.682;9.024;2022-12-11T09:14:48;95712.84;;;-3.11;86.20
4012;BME280;2020;48.682;9.024;2022-12-11T09:17:13;95707.75;;;-3.11;86.03
4012;BME280;2020;48.682;9.024;2022-12-11T09:19:38;95704.19;;;-3.23;84.51
4012;BME280;2020;48.682;9.024;2022-12-11T09:22:04;95713.38;;;-3.20;85.44
4012;BME280;2020;48.682;9.024;2022-12-11T09:24:29;95706.00;;;-3.25;85.46
4012;BME280;2020;48.682;9.024;2022-12-11T09:26:54;95717.56;;;-3.19;85.35
4012;BME280;2020;48.682;9.024;2022-12-11T09:29:19;95713.38;;;-3.20;84.00
4012;BME280;2020;48.682;9.024;2022-12-11T09:31:45;95712.66;;;-3.22;85.06
4012;BME280;2020;48.682;9.024;2022-12-11T09:34:12;95713.66;;;-3.11;85.47
4012;BME280;2020;48.682;9.024;2022-12-11T09:36:39;95711.56;;;-3.18;84.46
4012;BME280;2020;48.682;9.024;2022-12-11T09:39:06;95707.09;;;-3.15;85.35
4012;BME280;2020;48.682;9.024;2022-12-11T09:41:35;95709.91;;;-3.19;84.71
4012;BME280;2020;48.682;9.024;2022-12-11T09:46:46;95714.47;;;-3.10;84.66
4012;BME280;2020;48.682;9.024;2022-12-11T09:49:36;95710.84;;;-3.06;84.84
4012;BME280;2020;48.682;9.024;2022-12-11T09:54:58;95707.22;;;-3.02;83.64
4012;BME280;2020;48.682;9.024;2022-12-11T09:57:47;95703.22;;;-2.91;83.91
4012;BME280;2020;48.682;9.024;2022-12-11T10:00:24;95705.47;;;-2.87;83.96
4012;BME280;2020;48.682;9.024;2022-12-11T10:03:16;95705.94;;;-2.80;84.25
4012;BME280;2020;48.682;9.024;2022-12-11T10:05:54;95701.81;;;-2.83;84.31
4012;BME280;2020;48.682;9.024;2022-12-11T10:17:11;95683.97;;;-2.68;84.39
4012;BME280;2020;48.682;9.024;2022-12-11T10:19:39;95677.34;;;-2.56;83.17
4012;BME280;2020;48.682;9.024;2022-12-11T10:22:11;95675.69;;;-2.57;82.19
4012;BME280;2020;48.682;9.024;2022-12-11T10:24:46;95669.13;;;-2.47;83.27
4012;BME280;2020;48.682;9.024;2022-12-11T10:27:18;95674.94;;;-2.45;82.42
4012;BME280;2020;48.682;9.024;2022-12-11T10:29:46;95675.03;;;-2.46;82.51
4012;BME280;2020;48.682;9.024;2022-12-11T10:32:21;95668.84;;;-2.42;82.90
4012;BME280;2020;48.682;9.024;2022-12-11T10:34:54;95668.00;;;-2.43;81.75
4012;BME280;2020;48.682;9.024;2022-12-11T10:37:23;95659.47;;;-2.42;81.85
4012;BME280;2020;48.682;9.024;2022-12-11T10:39:48;95652.53;;;-2.40;83.10
4012;BME280;2020;48.682;9.024;2022-12-11T10:42:21;95662.75;;;-2.54;81.92
4012;BME280;2020;48.682;9.024;2022-12-11T10:44:59;95658.00;;;-2.46;82.18
4012;BME280;2020;48.682;9.024;2022-12-11T10:47:25;95650.19;;;-2.43;81.46
4012;BME280;2020;48.682;9.024;2022-12-11T10:50:02;95648.69;;;-2.32;81.98
4012;BME280;2020;48.682;9.024;2022-12-11T10:52:36;95646.28;;;-2.21;81.88
4012;BME280;2020;48.682;9.024;2022-12-11T10:57:33;95641.19;;;-2.21;83.63
4012;BME280;2020;48.682;9.024;2022-12-11T11:00:00;95650.00;;;-2.12;82.79
4012;BME280;2020;48.682;9.024;2022-12-11T11:02:38;95638.50;;;-2.05;82.35
4012;BME280;2020;48.682;9.024;2022-12-11T11:05:16;95644.66;;;-2.22;82.45
4012;BME280;2020;48.682;9.024;2022-12-11T11:08:01;95627.13;;;-2.14;82.29
4012;BME280;2020;48.682;9.024;2022-12-11T11:10:26;95624.72;;;-2.02;83.40
4012;BME280;2020;48.682;9.024;2022-12-11T11:13:00;95628.75;;;-2.13;82.38
4012;BME280;2020;48.682;9.024;2022-12-11T11:15:27;95630.59;;;-2.15;82.20
4012;BME280;2020;48.682;9.024;2022-12-11T11:18:03;95631.63;;;-2.17;81.99
4012;BME280;2020;48.682;9.024;2022-12-11T11:20:33;95630.84;;;-2.05;81.93
4012;BME280;2020;48.682;9.024;2022-12-11T11:23:02;95627.41;;;-1.91;82.16
4012;BME280;2020;48.682;9.024;2022-12-11T11:25:29;95618.84;;;-1.90;82.00
4012;BME280;2020;48.682;9.024;2022-12-11T11:28:06;95621.91;;;-1.85;82.39
4012;BME280;2020;48.682;9.024;2022-12-11T11:30:40;95619.97;;;-1.94;81.16
4012;BME280;2020;48.682;9.024;2022-12-11T11:33:15;95616.13;;;-2.01;82.25
4012;BME280;2020;48.682;9.024;2022-12-11T11:35:51;95614.13;;;-1.96;80.16
4012;BME280;2020;48.682;9.024;2022-12-11T11:38:20;95618.38;;;-2.10;81.02
4012;BME280;2020;48.682;9.024;2022-12-11T11:51:15;95612.09;;;-1.91;82.83
4012;BME280;2020;48.682;9.024;2022-12-11T11:53:47;95610.50;;;-2.07;83.07
4012;BME280;2020;48.682;9.024;2022-12-11T11:59:06;95603.69;;;-2.06;83.78
4012;BME280;2020;48.682;9.024;2022-12-11T12:01:35;95610.19;;;-2.15;84.06
4012;BME280;2020;48.682;9.024;2022-12-11T12:04:02;95604.69;;;-2.09;85.34
4012;BME280;2020;48.682;9.024;2022-12-11T12:14:39;95605.28;;;-2.18;82.37
4012;BME280;2020;48.682;9.024;2022-12-11T12:20:25;95602.66;;;-2.03;82.39
4012;BME280;2020;48.682;9.024;2022-12-11T12:25:53;95599.41;;;-2.06;82.17
4012;BME280;2020;48.682;9.024;2022-12-11T12:28:38;95598.84;;;-1.96;82.02
4012;BME280;2020;48.682;9.024;2022-12-11T12:36:23;95584.16;;;-1.67;81.26
4012;BME280;2020;48.682;9.024;2022-12-11T12:39:10;95581.50;;;-1.65;80.90
4012;BME280;2020;48.682;9.024;2022-12-11T12:41:50;95572.94;;;-1.64;80.44
4012;BME280;2020;48.682;9.024;2022-12-11T12:44:21;95578.75;;;-1.62;80.33
4012;BME280;2020;48.682;9.024;2022-12-11T12:46:56;95578.56;;;-1.59;80.87
4012;BME280;2020;48.682;9.024;2022-12-11T12:49:35;95571.00;;;-1.48;80.43
4012;BME280;2020;48.682;9.024;2022-12-11T12:52:04;95570.50;;;-1.53;80.35
4012;BME280;2020;48.682;9.024;2022-12-11T12:54:32;95568.66;;;-1.51;81.96
4012;BME280;2020;48.682;9.024;2022-12-11T12:57:00;95571.50;;;-1.42;80.67
4012;BME280;2020;48.682;9.024;2022-12-11T12:59:27;95572.31;;;-1.29;80.00
4012;BME280;2020;48.682;9.024;2022-12-11T13:01:55;95569.88;;;-1.30;79.11
4012;BME280;2020;48.682;9.024;2022-12-11T13:07:10;95571.09;;;-1.36;78.78
4012;BME280;2020;48.682;9.024;2022-12-11T13:09:35;95575.16;;;-1.34;79.48
4012;BME280;2020;48.682;9.024;2022-12-11T13:12:12;95578.94;;;-1.39;78.55
4012;BME280;2020;48.682;9.024;2022-12-11T13:14:38;95575.28;;;-1.35;78.33
4012;BME280;2020;48.682;9.024;2022-12-11T13:17:22;95575.56;;;-1.27;80.15
4012;BME280;2020;48.682;9.024;2022-12-11T13:19:49;95576.56;;;-1.16;79.19
4012;BME280;2020;48.682;9.024;2022-12-11T13:22:22;95569.63;;;-1.14;78.44
4012;BME280;2020;48.682;9.024;2022-12-11T13:27:41;95567.06;;;-0.77;76.40
4012;BME280;2020;48.682;9.024;2022-12-11T13:35:29;95565.38;;;-0.52;75.36
4012;BME280;2020;48.682;9.024;2022-12-11T13:38:02;95571.34;;;-0.65;74.15
4012;BME280;2020;48.682;9.024;2022-12-11T13:40:35;95576.84;;;-0.71;75.43
4012;BME280;2020;48.682;9.024;2022-12-11T13:43:05;95569.09;;;-0.69;75.14
4012;BME280;2020;48.682;9.024;2022-12-11T13:45:52;95562.94;;;-0.67;75.20
4012;BME280;2020;48.682;9.024;2022-12-11T13:48:59;95576.84;;;-0.71;76.08
4012;BME280;2020;48.682;9.024;2022-12-11T13:51:27;95582.84;;;-0.83;77.30
4012;BME280;2020;48.682;9.024;2022-12-11T13:54:12;95576.56;;;-1.04;77.33
4012;BME280;2020;48.682;9.024;2022-12-11T13:56:40;95580.34;;;-1.09;78.29
4012;BME280;2020;48.682;9.024;2022-12-11T13:59:19;95583.09;;;-1.12;76.74
4012;BME280;2020;48.682;9.024;2022-12-11T14:01:44;95579.25;;;-1.18;77.48
4012;BME280;2020;48.682;9.024;2022-12-11T14:04:14;95578.63;;;-1.22;75.93
4012;BME280;2020;48.682;9.024;2022-12-11T14:06:43;95585.56;;;-1.24;76.89
4012;BME280;2020;48.682;9.024;2022-12-11T14:09:18;95589.03;;;-1.25;77.63
4012;BME280;2020;48.682;9.024;2022-12-11T14:11:45;95589.97;;;-1.26;77.43
4012;BME280;2020;48.682;9.024;2022-12-11T14:14:20;95590.69;;;-1.24;77.48
4012;BME280;2020;48.682;9.024;2022-12-11T14:16:50;95580.47;;;-1.24;79.15
4012;BME280;2020;48.682;9.024;2022-12-11T14:19:20;95590.81;;;-1.25;79.54
4012;BME280;2020;48.682;9.024;2022-12-11T14:21:57;95592.00;;;-1.31;78.33
4012;BME280;2020;48.682;9.024;2022-12-11T14:24:23;95584.34;;;-1.31;78.67
4012;BME280;2020;48.682;9.024;2022-12-11T14:26:51;95594.56;;;-1.31;77.85
4012;BME280;2020;48.682;9.024;2022-12-11T14:29:31;95595.28;;;-1.42;78.77
4012;BME280;2020;48.682;9.024;2022-12-11T14:32:00;95598.25;;;-1.48;79.65
4012;BME280;2020;48.682;9.024;2022-12-11T14:34:40;95603.16;;;-1.58;79.23
4012;BME280;2020;48.682;9.024;2022-12-11T14:37:09;95603.03;;;-1.56;78.69
4012;BME280;2020;48.682;9.024;2022-12-11T14:39:53;95601.53;;;-1.59;78.89
4012;BME280;2020;48.682;9.024;2022-12-11T14:42:23;95601.72;;;-1.62;79.97
4012;BME280;2020;48.682;9.024;2022-12-11T14:47:33;95606.84;;;-1.62;79.99
4012;BME280;2020;48.682;9.024;2022-12-11T14:50:05;95605.41;;;-1.66;80.69
4012;BME280;2020;48.682;9.024;2022-12-11T14:52:36;95612.66;;;-1.60;81.05